Time;durP1;ratioP1;P1;durP2;ratioP2;P2;SDS_P1;SDS_P2;PMS_P1;PMS_P2;Temp;Humidity;BMP_temperature;BMP_pressure;BME280_temperature;BME280_humidity;BME280_pressure;Samples;Min_cycle;Max_cycle;Signal;HPM_P1;HPM_P2
2023/01/08 00:00:21;;;;;;;1.25;0.93;;;11.10;99.90;;;;;;4138562;28;20034;-70
2023/01/08 00:02:21;;;;;;;1.52;0.90;;;11.10;99.90;;;;;;4130779;28;20057;-67
2023/01/08 00:04:22;;;;;;;0.95;0.82;;;11.10;99.90;;;;;;4128389;28;20031;-67
2023/01/08 00:06:24;;;;;;;2.33;1.30;;;11.20;99.90;;;;;;4139525;28;20046;-67
2023/01/08 00:08:24;;;;;;;1.73;1.10;;;11.20;99.90;;;;;;4139006;28;20471;-67
2023/01/08 00:10:25;;;;;;;2.30;1.10;;;11.20;99.90;;;;;;4125615;28;20041;-67
2023/01/08 00:12:26;;;;;;;1.08;0.85;;;11.20;99.90;;;;;;4142889;28;20092;-66
2023/01/08 00:14:26;;;;;;;1.27;1.00;;;11.20;99.90;;;;;;4142007;28;20042;-67
2023/01/08 00:16:27;;;;;;;2.40;1.45;;;11.20;99.90;;;;;;4154823;28;20042;-67
2023/01/08 00:18:28;;;;;;;1.50;0.98;;;11.20;99.90;;;;;;4139818;28;20479;-66
2023/01/08 00:20:29;;;;;;;2.50;1.35;;;11.20;99.90;;;;;;4134069;28;20089;-68
2023/01/08 00:22:29;;;;;;;1.80;1.23;;;11.20;99.90;;;;;;4139508;28;20445;-67
2023/01/08 00:24:30;;;;;;;1.98;1.45;;;11.20;99.90;;;;;;4143730;28;20390;-66
2023/01/08 00:26:31;;;;;;;1.27;0.98;;;11.20;99.90;;;;;;4129975;28;20045;-67
2023/01/08 00:28:32;;;;;;;1.85;1.30;;;11.20;99.90;;;;;;4134746;28;20475;-67
2023/01/08 00:30:33;;;;;;;3.30;1.40;;;11.20;99.90;;;;;;4135183;28;20081;-67
2023/01/08 00:32:33;;;;;;;1.48;1.10;;;11.20;99.90;;;;;;4142699;28;20033;-68
2023/01/08 00:34:34;;;;;;;1.98;1.17;;;11.20;99.90;;;;;;4143009;28;20501;-67
2023/01/08 00:36:35;;;;;;;2.55;1.20;;;11.20;99.90;;;;;;4141293;28;20109;-67
2023/01/08 00:38:36;;;;;;;1.58;1.20;;;11.20;99.90;;;;;;4131699;28;20030;-66
2023/01/08 00:40:37;;;;;;;1.88;1.23;;;11.20;99.90;;;;;;4141390;28;20030;-66
2023/01/08 00:42:38;;;;;;;2.65;1.23;;;11.20;99.90;;;;;;4131266;28;20390;-66
2023/01/08 00:44:38;;;;;;;2.65;1.25;;;11.20;99.90;;;;;;4128116;28;20042;-67
2023/01/08 00:46:39;;;;;;;1.90;1.17;;;11.20;99.90;;;;;;4129445;28;20037;-66
2023/01/08 00:48:39;;;;;;;1.92;1.27;;;11.20;99.90;;;;;;4143952;28;20484;-67
2023/01/08 00:50:40;;;;;;;1.70;1.30;;;11.20;99.90;;;;;;4143672;28;20109;-66
2023/01/08 00:52:41;;;;;;;2.25;1.45;;;11.20;99.90;;;;;;4151289;28;20502;-66
2023/01/08 00:54:41;;;;;;;3.25;1.45;;;11.20;99.90;;;;;;4139004;28;20450;-67
2023/01/08 00:56:42;;;;;;;2.38;1.25;;;11.20;99.90;;;;;;4134382;28;20042;-67
2023/01/08 00:58:43;;;;;;;2.95;1.58;;;11.20;99.90;;;;;;4142026;28;20030;-66
2023/01/08 01:00:43;;;;;;;1.95;1.38;;;11.20;99.90;;;;;;4133128;28;20034;-67
2023/01/08 01:02:44;;;;;;;3.75;1.80;;;11.20;99.90;;;;;;4131464;28;20026;-67
2023/01/08 01:04:45;;;;;;;3.70;1.75;;;11.10;99.90;;;;;;4112672;28;20117;-66
2023/01/08 01:06:46;;;;;;;2.95;1.60;;;11.20;99.90;;;;;;4144152;28;20719;-66
2023/01/08 01:08:46;;;;;;;1.67;1.40;;;11.20;99.90;;;;;;4118582;28;20034;-67
2023/01/08 01:10:47;;;;;;;2.17;1.30;;;11.20;99.90;;;;;;4140780;28;20036;-67
2023/01/08 01:12:48;;;;;;;2.25;1.20;;;11.10;99.90;;;;;;4117759;28;20034;-66
2023/01/08 01:14:49;;;;;;;2.55;1.50;;;11.10;99.90;;;;;;4135818;28;20026;-66
2023/01/08 01:16:49;;;;;;;2.00;1.40;;;11.10;99.90;;;;;;4138831;28;20498;-67
2023/01/08 01:18:51;;;;;;;3.08;1.55;;;11.20;99.90;;;;;;4138887;28;20121;-67
2023/01/08 01:20:51;;;;;;;3.22;1.60;;;11.10;99.90;;;;;;4143954;28;20042;-67
2023/01/08 01:22:52;;;;;;;5.38;1.48;;;11.10;99.90;;;;;;4137254;28;20034;-67
2023/01/08 01:24:53;;;;;;;2.22;1.55;;;11.10;99.90;;;;;;4134986;28;20482;-67
2023/01/08 01:26:55;;;;;;;3.33;1.70;;;11.10;99.90;;;;;;4138894;28;20537;-67
2023/01/08 01:28:57;;;;;;;2.88;1.52;;;11.10;99.90;;;;;;4124393;28;20034;-67
2023/01/08 01:30:58;;;;;;;2.30;1.58;;;11.10;99.90;;;;;;4155414;28;20160;-67
2023/01/08 01:32:58;;;;;;;4.07;1.25;;;11.10;99.90;;;;;;4135511;28;20112;-66
2023/01/08 01:34:59;;;;;;;2.72;1.55;;;11.10;99.90;;;;;;4139921;28;20026;-67
2023/01/08 01:37:00;;;;;;;3.15;1.73;;;11.10;99.90;;;;;;4139034;28;20509;-68
2023/01/08 01:39:01;;;;;;;3.08;1.60;;;11.10;99.90;;;;;;4136823;28;20030;-66
2023/01/08 01:41:02;;;;;;;2.80;1.45;;;11.10;99.90;;;;;;4140317;28;20038;-67
2023/01/08 01:43:02;;;;;;;2.85;1.70;;;11.10;99.90;;;;;;4124918;28;20035;-67
2023/01/08 01:45:21;;;;;;;1.85;1.58;;;11.10;99.90;;;;;;4125033;28;20030;-67
2023/01/08 01:47:33;;;;;;;2.53;1.80;;;11.10;99.90;;;;;;4131305;28;20042;-67
2023/01/08 01:49:33;;;;;;;3.35;1.73;;;11.10;99.90;;;;;;4134368;28;20785;-67
2023/01/08 01:51:35;;;;;;;4.80;1.75;;;11.10;99.90;;;;;;4125499;28;20428;-69
2023/01/08 01:53:36;;;;;;;2.60;1.85;;;11.10;99.90;;;;;;4136008;28;20050;-67
2023/01/08 01:55:39;;;;;;;4.43;1.90;;;11.10;99.90;;;;;;4136122;28;20045;-67
2023/01/08 01:57:44;;;;;;;3.20;1.80;;;11.10;99.90;;;;;;4139925;28;20112;-66
2023/01/08 01:59:46;;;;;;;2.42;1.35;;;11.10;99.90;;;;;;4118505;28;20396;-67
2023/01/08 02:01:51;;;;;;;2.63;1.67;;;11.10;99.90;;;;;;4154338;28;20040;-69
2023/01/08 02:03:52;;;;;;;3.63;1.65;;;11.10;99.90;;;;;;4112315;28;20057;-67
2023/01/08 02:06:17;;;;;;;2.58;1.58;;;11.10;99.90;;;;;;4134439;28;20033;-68
2023/01/08 02:08:34;;;;;;;3.50;1.80;;;11.20;99.90;;;;;;4135302;28;20034;-66
2023/01/08 02:10:43;;;;;;;4.45;2.03;;;11.10;99.90;;;;;;4097754;28;20035;-68
2023/01/08 02:12:50;;;;;;;3.67;1.60;;;11.20;99.90;;;;;;4142152;28;20387;-66
2023/01/08 02:15:16;;;;;;;3.25;1.85;;;11.20;99.90;;;;;;4141081;28;20395;-65
2023/01/08 02:17:38;;;;;;;3.28;1.70;;;11.20;99.90;;;;;;4129165;28;20398;-66
2023/01/08 02:19:48;;;;;;;2.83;1.73;;;11.20;99.90;;;;;;4129496;28;20450;-66
2023/01/08 02:21:58;;;;;;;3.85;1.88;;;11.10;99.90;;;;;;4130335;28;20030;-65
2023/01/08 02:24:19;;;;;;;3.55;1.77;;;11.10;99.90;;;;;;4155115;28;20117;-65
2023/01/08 02:26:32;;;;;;;2.13;1.23;;;11.20;99.90;;;;;;4131289;28;20042;-70
2023/01/08 02:28:40;;;;;;;5.07;1.70;;;11.10;99.90;;;;;;4126051;28;20161;-66
2023/01/08 02:30:41;;;;;;;2.42;1.63;;;11.10;99.90;;;;;;4129903;28;20034;-66
2023/01/08 02:32:42;;;;;;;2.40;1.70;;;11.10;99.90;;;;;;4106505;28;20181;-66
2023/01/08 02:34:43;;;;;;;6.55;2.05;;;11.10;99.90;;;;;;4118895;28;20042;-67
2023/01/08 02:36:47;;;;;;;4.68;1.60;;;11.10;99.90;;;;;;4129338;28;20033;-66
2023/01/08 02:39:06;;;;;;;2.17;1.50;;;11.10;99.90;;;;;;4147223;28;20033;-66
2023/01/08 02:41:10;;;;;;;3.58;1.45;;;11.10;99.90;;;;;;4105792;28;20076;-66
2023/01/08 02:43:20;;;;;;;3.70;1.65;;;11.10;99.90;;;;;;4138434;28;20068;-70
2023/01/08 02:45:33;;;;;;;2.22;1.60;;;11.10;99.90;;;;;;4140116;28;20437;-66
2023/01/08 02:47:46;;;;;;;4.05;1.65;;;11.20;99.90;;;;;;4124716;28;20034;-66
2023/01/08 02:49:53;;;;;;;2.50;1.70;;;11.20;99.90;;;;;;4146970;28;20117;-65
2023/01/08 02:51:56;;;;;;;3.55;1.58;;;11.10;99.90;;;;;;4120348;28;20129;-66
2023/01/08 02:54:01;;;;;;;2.47;1.63;;;11.20;99.90;;;;;;4142270;28;20462;-66
2023/01/08 02:56:12;;;;;;;3.47;1.52;;;11.10;99.90;;;;;;4137944;28;20050;-66
2023/01/08 02:58:14;;;;;;;4.15;1.70;;;11.20;99.90;;;;;;4128811;28;20049;-68
2023/01/08 03:00:15;;;;;;;3.03;1.75;;;11.10;99.90;;;;;;4130319;28;20084;-66
2023/01/08 03:02:16;;;;;;;3.13;1.52;;;11.10;99.90;;;;;;4145515;28;20038;-66
2023/01/08 03:04:20;;;;;;;3.70;1.65;;;11.10;99.90;;;;;;4148165;28;20033;-66
2023/01/08 03:06:22;;;;;;;4.15;1.75;;;11.10;99.90;;;;;;4134713;28;20061;-66
2023/01/08 03:08:23;;;;;;;3.55;1.40;;;11.10;99.90;;;;;;4141330;28;20035;-66
2023/01/08 03:10:27;;;;;;;3.78;1.55;;;11.10;99.90;;;;;;4100586;28;20034;-66
2023/01/08 03:12:43;;;;;;;3.42;1.80;;;11.20;99.90;;;;;;4136357;28;20030;-67
2023/01/08 03:14:54;;;;;;;5.57;2.10;;;11.20;99.90;;;;;;4137887;28;20034;-67
2023/01/08 03:17:10;;;;;;;4.22;2.00;;;11.10;99.90;;;;;;4106440;28;20050;-66
2023/01/08 03:19:11;;;;;;;2.75;1.38;;;11.20;99.90;;;;;;4127437;28;20495;-65
2023/01/08 03:21:14;;;;;;;4.85;2.00;;;11.20;99.90;;;;;;4126579;28;20062;-68
2023/01/08 03:23:16;;;;;;;3.38;1.70;;;11.20;99.90;;;;;;4125357;28;20035;-65
2023/01/08 03:25:20;;;;;;;4.28;1.90;;;11.20;99.90;;;;;;4134317;28;20074;-65
2023/01/08 03:27:27;;;;;;;5.45;1.70;;;11.20;99.90;;;;;;4140623;28;20037;-67
2023/01/08 03:29:28;;;;;;;3.08;1.35;;;11.20;99.90;;;;;;4152775;28;20030;-65
2023/01/08 03:31:29;;;;;;;2.58;1.30;;;11.20;99.90;;;;;;4131740;28;20037;-65
2023/01/08 03:33:31;;;;;;;2.88;1.65;;;11.20;99.90;;;;;;4143457;28;20032;-69
2023/01/08 03:35:34;;;;;;;3.03;1.45;;;11.20;99.90;;;;;;4142321;28;20053;-70
2023/01/08 03:37:39;;;;;;;2.38;1.58;;;11.20;99.90;;;;;;4116531;28;20523;-70
2023/01/08 03:39:51;;;;;;;2.15;1.30;;;11.20;99.90;;;;;;4138477;28;20564;-69
2023/01/08 03:41:58;;;;;;;3.35;1.75;;;11.20;99.90;;;;;;4133990;28;20081;-69
2023/01/08 03:44:04;;;;;;;3.15;1.48;;;11.20;99.90;;;;;;4143605;28;20030;-70
2023/01/08 03:46:10;;;;;;;2.65;1.60;;;11.20;99.90;;;;;;4137172;28;20104;-66
2023/01/08 03:48:11;;;;;;;2.88;1.40;;;11.20;99.90;;;;;;4141921;28;20512;-66
2023/01/08 03:50:19;;;;;;;2.50;1.30;;;11.20;99.90;;;;;;4127728;28;20062;-66
2023/01/08 03:52:22;;;;;;;3.25;1.50;;;11.20;99.90;;;;;;4145205;28;20501;-66
2023/01/08 03:54:29;;;;;;;2.92;1.65;;;11.20;99.90;;;;;;4141817;28;20049;-66
2023/01/08 03:56:29;;;;;;;4.03;1.52;;;11.20;99.90;;;;;;4110241;28;20470;-66
2023/01/08 03:58:30;;;;;;;2.95;1.70;;;11.20;99.90;;;;;;4131587;28;20038;-66
2023/01/08 04:00:31;;;;;;;2.22;1.42;;;11.20;99.90;;;;;;4136895;28;20041;-66
2023/01/08 04:02:31;;;;;;;2.72;1.70;;;11.20;99.90;;;;;;4130376;28;20077;-69
2023/01/08 04:04:32;;;;;;;2.15;1.35;;;11.20;99.90;;;;;;4143404;28;20093;-66
2023/01/08 04:06:32;;;;;;;1.70;1.15;;;11.20;99.90;;;;;;4143669;28;20513;-66
2023/01/08 04:08:33;;;;;;;9.95;1.90;;;11.20;99.90;;;;;;4139382;28;20040;-66
2023/01/08 04:10:33;;;;;;;5.32;1.73;;;11.20;99.90;;;;;;4142051;28;20100;-65
2023/01/08 04:12:34;;;;;;;1.63;1.23;;;11.20;99.90;;;;;;4143191;28;20109;-66
2023/01/08 04:14:35;;;;;;;6.60;1.42;;;11.20;99.90;;;;;;4143308;28;20081;-66
2023/01/08 04:16:35;;;;;;;3.05;1.42;;;11.20;99.90;;;;;;4142513;28;20038;-68
2023/01/08 04:18:36;;;;;;;2.50;1.25;;;11.20;99.90;;;;;;4139323;28;20383;-66
2023/01/08 04:20:36;;;;;;;2.15;1.40;;;11.20;99.90;;;;;;4141824;28;20152;-69
2023/01/08 04:22:37;;;;;;;2.50;1.30;;;11.20;99.90;;;;;;4139581;28;20034;-67
2023/01/08 04:24:38;;;;;;;2.20;1.25;;;11.20;99.90;;;;;;4133170;28;20030;-66
2023/01/08 04:26:48;;;;;;;2.15;1.23;;;11.20;99.90;;;;;;4143185;28;20569;-67
2023/01/08 04:28:48;;;;;;;5.00;1.40;;;11.20;99.90;;;;;;4133509;28;20050;-66
2023/01/08 04:30:49;;;;;;;2.22;1.30;;;11.20;99.90;;;;;;4132682;28;20026;-66
2023/01/08 04:32:53;;;;;;;1.98;0.93;;;11.20;99.90;;;;;;4126447;28;20097;-66
2023/01/08 04:34:53;;;;;;;2.20;1.20;;;11.20;99.90;;;;;;4135887;28;20109;-66
2023/01/08 04:36:57;;;;;;;2.30;1.30;;;11.20;99.90;;;;;;4135529;28;20042;-66
2023/01/08 04:39:01;;;;;;;2.65;1.33;;;11.20;99.90;;;;;;4122059;28;20656;-67
2023/01/08 04:41:02;;;;;;;3.97;1.40;;;11.20;99.90;;;;;;4133129;28;20030;-66
2023/01/08 04:43:03;;;;;;;4.38;1.50;;;11.20;99.90;;;;;;4134379;28;20049;-67
2023/01/08 04:45:06;;;;;;;4.47;1.52;;;11.20;99.90;;;;;;4138352;28;20399;-67
2023/01/08 04:47:06;;;;;;;2.22;1.38;;;11.20;99.90;;;;;;4122585;28;20137;-66
2023/01/08 04:49:08;;;;;;;5.97;1.75;;;11.10;99.90;;;;;;4136112;28;20022;-67
2023/01/08 04:51:09;;;;;;;2.15;1.13;;;11.20;99.90;;;;;;4153327;28;20456;-66
2023/01/08 04:53:10;;;;;;;3.10;1.40;;;11.20;99.90;;;;;;4151972;28;20036;-67
2023/01/08 04:55:11;;;;;;;1.30;1.02;;;11.20;99.90;;;;;;4124492;28;20065;-67
2023/01/08 04:57:15;;;;;;;2.20;1.10;;;11.10;99.90;;;;;;4131319;28;20030;-68
2023/01/08 04:59:16;;;;;;;2.75;1.23;;;11.20;99.90;;;;;;4153547;28;20044;-66
2023/01/08 05:01:27;;;;;;;1.60;1.25;;;11.10;99.90;;;;;;4127147;28;20036;-66
2023/01/08 05:03:28;;;;;;;1.60;1.10;;;11.20;99.90;;;;;;4135753;28;20128;-66
2023/01/08 05:05:28;;;;;;;1.48;1.08;;;11.20;99.90;;;;;;4152213;28;20057;-66
2023/01/08 05:07:29;;;;;;;4.82;1.30;;;11.10;99.90;;;;;;4120634;28;20038;-66
2023/01/08 05:09:30;;;;;;;2.88;1.10;;;11.10;99.90;;;;;;4135744;28;21560;-68
2023/01/08 05:11:36;;;;;;;1.95;1.00;;;11.10;99.90;;;;;;4123975;28;20537;-67
2023/01/08 05:13:36;;;;;;;1.80;0.90;;;11.10;99.90;;;;;;4144810;28;20030;-66
2023/01/08 05:15:37;;;;;;;1.70;0.90;;;11.10;99.90;;;;;;4137504;28;20395;-67
2023/01/08 05:17:38;;;;;;;2.25;1.20;;;11.00;99.90;;;;;;4139951;28;20045;-69
2023/01/08 05:19:38;;;;;;;1.58;0.82;;;11.10;99.90;;;;;;4113057;28;20058;-67
2023/01/08 05:21:39;;;;;;;2.95;1.08;;;11.10;99.90;;;;;;4153707;28;20040;-67
2023/01/08 05:23:46;;;;;;;1.38;0.98;;;11.00;99.90;;;;;;4115029;28;20030;-67
2023/01/08 05:25:47;;;;;;;1.63;0.85;;;11.00;99.90;;;;;;4128783;28;20038;-66
2023/01/08 05:27:48;;;;;;;1.95;0.80;;;11.00;99.90;;;;;;4124659;28;20025;-67
2023/01/08 05:29:49;;;;;;;1.20;0.70;;;11.00;99.90;;;;;;4141164;28;20029;-66
2023/01/08 05:31:50;;;;;;;1.83;0.93;;;11.10;99.90;;;;;;4145178;28;20034;-66
2023/01/08 05:33:57;;;;;;;1.08;0.77;;;11.10;99.90;;;;;;4140455;28;20071;-66
2023/01/08 05:35:58;;;;;;;1.30;0.80;;;11.00;99.90;;;;;;4142354;28;20042;-67
2023/01/08 05:37:59;;;;;;;2.47;1.00;;;11.00;99.90;;;;;;4137522;28;20101;-67
2023/01/08 05:40:00;;;;;;;1.48;0.80;;;11.00;99.90;;;;;;4133475;28;20092;-66
2023/01/08 05:42:01;;;;;;;1.80;0.73;;;11.00;99.90;;;;;;4139070;28;20030;-67
2023/01/08 05:44:01;;;;;;;1.48;0.82;;;11.00;99.90;;;;;;4140184;28;20080;-66
2023/01/08 05:46:03;;;;;;;2.05;0.57;;;11.10;99.90;;;;;;4134945;28;20034;-66
2023/01/08 05:48:06;;;;;;;1.08;0.75;;;11.00;99.90;;;;;;4148032;28;20169;-66
2023/01/08 05:50:06;;;;;;;0.90;0.60;;;11.00;99.90;;;;;;4142768;28;20037;-66
2023/01/08 05:52:07;;;;;;;1.77;0.70;;;11.00;99.90;;;;;;4132847;28;20443;-66
2023/01/08 05:54:08;;;;;;;2.95;0.80;;;11.00;99.90;;;;;;4140174;28;20035;-68
2023/01/08 05:56:19;;;;;;;1.58;0.55;;;10.90;99.90;;;;;;4142652;28;20092;-66
2023/01/08 05:58:20;;;;;;;2.03;0.70;;;10.80;99.90;;;;;;4137952;28;20046;-66
2023/01/08 06:00:20;;;;;;;2.05;0.65;;;10.80;99.90;;;;;;4136461;28;20060;-68
2023/01/08 06:02:21;;;;;;;1.83;0.75;;;10.70;99.90;;;;;;4136007;28;20043;-66
2023/01/08 06:04:22;;;;;;;2.95;0.90;;;10.60;99.90;;;;;;4140088;28;20034;-66
2023/01/08 06:06:23;;;;;;;1.73;0.40;;;10.60;99.90;;;;;;4112482;28;20550;-66
2023/01/08 06:08:24;;;;;;;1.38;0.68;;;10.60;99.90;;;;;;4124070;28;20029;-66
2023/01/08 06:10:25;;;;;;;2.85;0.80;;;10.50;99.90;;;;;;4141641;28;20033;-66
2023/01/08 06:12:25;;;;;;;1.20;0.50;;;10.50;99.90;;;;;;4141115;28;20033;-66
2023/01/08 06:14:26;;;;;;;2.25;0.90;;;10.50;99.90;;;;;;4130911;28;20076;-66
2023/01/08 06:16:27;;;;;;;2.17;0.73;;;10.50;99.90;;;;;;4124430;28;20442;-67
2023/01/08 06:18:28;;;;;;;3.10;1.10;;;10.40;99.90;;;;;;4133558;28;20038;-66
2023/01/08 06:20:32;;;;;;;3.92;0.93;;;10.40;99.90;;;;;;4135108;28;20666;-66
2023/01/08 06:22:33;;;;;;;2.53;0.77;;;10.40;99.90;;;;;;4135442;28;20034;-66
2023/01/08 06:24:34;;;;;;;1.70;0.93;;;10.30;99.90;;;;;;4113332;28;20167;-66
2023/01/08 06:26:34;;;;;;;1.25;0.60;;;10.20;99.90;;;;;;4129679;28;20058;-66
2023/01/08 06:28:35;;;;;;;3.55;0.90;;;10.20;99.90;;;;;;4136159;28;20040;-66
2023/01/08 06:30:41;;;;;;;3.05;0.95;;;10.20;99.90;;;;;;4105344;28;20027;-67
2023/01/08 06:32:42;;;;;;;2.65;0.90;;;10.20;99.90;;;;;;4139656;28;20490;-68
2023/01/08 06:34:43;;;;;;;3.33;0.93;;;10.10;99.90;;;;;;4127556;28;20152;-66
2023/01/08 06:36:43;;;;;;;6.18;0.95;;;10.10;99.90;;;;;;4100351;28;20061;-66
2023/01/08 06:38:44;;;;;;;3.42;1.00;;;10.00;99.90;;;;;;4134882;28;20092;-66
2023/01/08 06:40:46;;;;;;;2.20;0.75;;;10.10;99.90;;;;;;4141715;28;20026;-66
2023/01/08 06:42:46;;;;;;;4.40;0.90;;;10.00;99.90;;;;;;4141338;28;20483;-65
2023/01/08 06:44:47;;;;;;;1.83;0.73;;;10.00;99.90;;;;;;4137125;28;20280;-66
2023/01/08 06:46:48;;;;;;;4.53;1.10;;;10.00;99.90;;;;;;4136377;28;20065;-66
2023/01/08 06:48:51;;;;;;;2.58;0.77;;;9.90;99.90;;;;;;4137992;28;20105;-65
2023/01/08 06:50:52;;;;;;;3.65;0.80;;;9.90;99.90;;;;;;4100563;28;20031;-66
2023/01/08 06:52:54;;;;;;;11.35;1.30;;;9.90;99.90;;;;;;4152471;28;20038;-66
2023/01/08 06:54:54;;;;;;;4.05;0.90;;;9.90;99.90;;;;;;4145220;28;21678;-66
2023/01/08 06:56:55;;;;;;;2.63;0.70;;;9.90;99.90;;;;;;4138835;28;20080;-66
2023/01/08 06:58:58;;;;;;;2.55;0.75;;;9.90;99.90;;;;;;4135410;28;20038;-66
2023/01/08 07:00:59;;;;;;;1.65;0.60;;;9.90;99.90;;;;;;4124386;28;20136;-66
2023/01/08 07:03:03;;;;;;;2.03;0.70;;;9.90;99.90;;;;;;4137325;28;20026;-67
2023/01/08 07:05:04;;;;;;;2.58;0.63;;;9.90;99.90;;;;;;4150195;28;20107;-67
2023/01/08 07:07:04;;;;;;;2.97;0.77;;;9.90;99.90;;;;;;4140380;28;20454;-70
2023/01/08 07:09:05;;;;;;;1.90;0.57;;;9.90;99.90;;;;;;4136230;28;20042;-66
2023/01/08 07:11:06;;;;;;;0.75;0.50;;;9.90;99.90;;;;;;4151357;28;20034;-67
2023/01/08 07:13:07;;;;;;;4.18;0.90;;;9.90;99.90;;;;;;4140753;28;20380;-66
2023/01/08 07:15:11;;;;;;;1.93;0.70;;;9.90;99.90;;;;;;4138465;28;20119;-67
2023/01/08 07:17:12;;;;;;;4.45;0.75;;;9.90;99.90;;;;;;4135990;28;20289;-66
2023/01/08 07:19:12;;;;;;;2.17;0.50;;;9.90;99.90;;;;;;4134352;28;20430;-66
2023/01/08 07:21:13;;;;;;;1.90;0.60;;;9.80;99.90;;;;;;4133019;28;20095;-67
2023/01/08 07:23:16;;;;;;;2.58;0.65;;;9.90;99.90;;;;;;4142516;28;20030;-65
2023/01/08 07:25:17;;;;;;;1.27;0.57;;;9.80;99.90;;;;;;4097661;28;20027;-67
2023/01/08 07:27:18;;;;;;;3.05;0.98;;;9.80;99.90;;;;;;4128675;28;20045;-66
2023/01/08 07:29:18;;;;;;;2.72;0.98;;;9.80;99.90;;;;;;4153407;28;20522;-66
2023/01/08 07:31:22;;;;;;;6.15;1.42;;;9.80;99.90;;;;;;4124800;28;20038;-66
2023/01/08 07:33:23;;;;;;;1.48;0.95;;;9.80;99.90;;;;;;4118181;28;20041;-66
2023/01/08 07:35:24;;;;;;;4.70;1.50;;;9.70;99.90;;;;;;4141647;28;20392;-67
2023/01/08 07:37:25;;;;;;;2.45;1.23;;;9.80;99.90;;;;;;4142808;28;20052;-66
2023/01/08 07:39:25;;;;;;;2.75;1.23;;;9.70;99.90;;;;;;4142121;28;20042;-65
2023/01/08 07:41:26;;;;;;;1.98;1.02;;;9.70;99.90;;;;;;4148163;28;20026;-66
2023/01/08 07:43:28;;;;;;;3.88;1.60;;;9.70;99.90;;;;;;4143288;28;20038;-66
2023/01/08 07:45:30;;;;;;;2.50;1.40;;;9.70;99.90;;;;;;4158136;28;20042;-66
2023/01/08 07:47:30;;;;;;;3.50;1.45;;;9.60;99.90;;;;;;4139675;28;20030;-70
2023/01/08 07:49:31;;;;;;;3.63;1.20;;;9.60;99.90;;;;;;4130882;28;20407;-66
2023/01/08 07:51:32;;;;;;;2.90;1.30;;;9.60;99.90;;;;;;4151861;28;20470;-65
2023/01/08 07:53:33;;;;;;;2.95;1.23;;;9.60;99.90;;;;;;4143353;28;20121;-65
2023/01/08 07:55:34;;;;;;;3.70;1.30;;;9.50;99.90;;;;;;4131744;28;20044;-65
2023/01/08 07:57:35;;;;;;;5.45;1.65;;;9.50;99.90;;;;;;4158102;28;20058;-65
2023/01/08 07:59:35;;;;;;;5.28;1.98;;;9.50;99.90;;;;;;4137668;28;20450;-67
2023/01/08 08:01:36;;;;;;;5.65;1.75;;;9.50;99.90;;;;;;4129469;28;20030;-66
2023/01/08 08:03:40;;;;;;;3.35;1.40;;;9.50;99.90;;;;;;4155278;28;20036;-65
2023/01/08 08:05:41;;;;;;;4.35;1.33;;;9.40;99.90;;;;;;4119494;28;20034;-66
2023/01/08 08:07:41;;;;;;;6.93;2.00;;;9.40;99.90;;;;;;4138104;28;20053;-66
2023/01/08 08:09:42;;;;;;;3.53;1.60;;;9.40;99.90;;;;;;4142170;28;20029;-65
2023/01/08 08:11:42;;;;;;;3.13;1.42;;;9.40;99.90;;;;;;4139687;28;20113;-66
2023/01/08 08:13:43;;;;;;;9.90;1.83;;;9.30;99.90;;;;;;4161262;28;20041;-65
2023/01/08 08:15:44;;;;;;;5.00;1.27;;;9.30;99.90;;;;;;4162201;28;20584;-66
2023/01/08 08:17:48;;;;;;;3.42;1.20;;;9.30;99.90;;;;;;4163798;28;20045;-68
2023/01/08 08:19:49;;;;;;;6.20;1.25;;;9.30;99.90;;;;;;4136717;28;20034;-66
2023/01/08 08:21:49;;;;;;;4.20;0.85;;;9.30;99.90;;;;;;4144990;28;20092;-65
2023/01/08 08:23:50;;;;;;;1.48;0.70;;;9.30;99.90;;;;;;4162997;28;20034;-65
2023/01/08 08:25:51;;;;;;;2.92;0.85;;;9.30;99.90;;;;;;4156782;28;20030;-65
2023/01/08 08:27:51;;;;;;;3.20;1.00;;;9.30;99.90;;;;;;4143921;28;20034;-65
2023/01/08 08:29:52;;;;;;;6.45;1.63;;;9.30;99.90;;;;;;4130558;28;20030;-67
2023/01/08 08:31:52;;;;;;;2.58;1.00;;;9.30;99.90;;;;;;4138121;28;20652;-66
2023/01/08 08:33:53;;;;;;;5.63;1.08;;;9.30;99.90;;;;;;4160161;28;20517;-65
2023/01/08 08:35:54;;;;;;;3.65;0.93;;;9.30;99.90;;;;;;4132279;28;20398;-66
2023/01/08 08:37:55;;;;;;;2.50;0.75;;;9.30;99.90;;;;;;4140934;28;20120;-67
2023/01/08 08:39:56;;;;;;;2.15;0.98;;;9.30;99.90;;;;;;4133552;28;20073;-65
2023/01/08 08:41:56;;;;;;;4.38;1.00;;;9.30;99.90;;;;;;4151841;28;20045;-66
2023/01/08 08:43:57;;;;;;;3.03;0.70;;;9.30;99.90;;;;;;4156750;28;20387;-65
2023/01/08 08:45:57;;;;;;;3.15;1.00;;;9.30;99.90;;;;;;4137919;28;20742;-65
2023/01/08 08:47:58;;;;;;;5.45;1.30;;;9.30;99.90;;;;;;4136772;28;20774;-66
2023/01/08 08:49:59;;;;;;;8.30;1.95;;;9.40;99.90;;;;;;4136192;28;20494;-66
2023/01/08 08:51:59;;;;;;;6.00;2.00;;;9.40;99.90;;;;;;4122689;28;20183;-66
2023/01/08 08:54:00;;;;;;;4.25;1.80;;;9.40;99.90;;;;;;4138354;28;20053;-65
2023/01/08 08:56:00;;;;;;;8.52;1.50;;;9.40;99.90;;;;;;4135581;28;20394;-66
2023/01/08 08:58:09;;;;;;;4.80;1.20;;;9.40;99.90;;;;;;4140352;28;20038;-66
2023/01/08 09:00:11;;;;;;;4.28;1.27;;;9.40;99.90;;;;;;4137479;28;20418;-68
2023/01/08 09:02:12;;;;;;;6.22;1.10;;;9.50;99.90;;;;;;4130901;28;20040;-68
2023/01/08 09:04:12;;;;;;;3.80;1.17;;;9.50;99.90;;;;;;4132305;28;20469;-67
2023/01/08 09:06:13;;;;;;;6.22;1.35;;;9.50;99.90;;;;;;4135637;28;20053;-66
2023/01/08 09:08:14;;;;;;;5.40;1.48;;;9.60;99.90;;;;;;4133792;28;20381;-65
2023/01/08 09:10:14;;;;;;;3.33;1.33;;;9.60;99.90;;;;;;4133807;28;20566;-65
2023/01/08 09:12:15;;;;;;;3.83;1.42;;;9.60;99.90;;;;;;4147541;28;20041;-67
2023/01/08 09:14:16;;;;;;;7.70;1.52;;;9.70;99.90;;;;;;4119885;28;20038;-65
2023/01/08 09:16:17;;;;;;;5.03;1.58;;;9.70;99.90;;;;;;4132855;28;20042;-66
2023/01/08 09:18:17;;;;;;;3.60;1.50;;;9.70;99.90;;;;;;4131106;28;20798;-66
2023/01/08 09:20:18;;;;;;;4.43;1.40;;;9.80;99.90;;;;;;4129399;28;20438;-66
2023/01/08 09:22:19;;;;;;;4.72;1.13;;;9.80;99.90;;;;;;4136164;28;20037;-65
2023/01/08 09:24:20;;;;;;;5.95;1.70;;;9.90;99.90;;;;;;4147398;28;20137;-66
2023/01/08 09:26:20;;;;;;;6.97;1.92;;;9.90;99.90;;;;;;4151982;28;20061;-69
2023/01/08 09:28:21;;;;;;;4.47;1.20;;;10.00;99.90;;;;;;4139908;28;20114;-66
2023/01/08 09:30:21;;;;;;;4.63;1.63;;;10.00;99.90;;;;;;4138384;28;20053;-65
2023/01/08 09:32:22;;;;;;;4.00;1.30;;;10.00;99.90;;;;;;4141239;28;20604;-65
2023/01/08 09:34:23;;;;;;;6.68;1.48;;;10.10;99.90;;;;;;4139358;28;20414;-67
2023/01/08 09:36:23;;;;;;;7.57;1.52;;;10.20;99.90;;;;;;4139327;28;20042;-66
2023/01/08 09:38:24;;;;;;;3.72;1.13;;;10.30;99.90;;;;;;4137470;28;20068;-66
2023/01/08 09:40:34;;;;;;;4.45;1.67;;;10.30;99.90;;;;;;4138194;28;20037;-66
2023/01/08 09:42:34;;;;;;;8.82;1.80;;;10.40;99.90;;;;;;4133976;28;20484;-66
2023/01/08 09:44:39;;;;;;;4.28;1.50;;;10.40;99.90;;;;;;4129509;28;20045;-65
2023/01/08 09:46:40;;;;;;;3.17;1.30;;;10.40;99.90;;;;;;4121304;28;20038;-67
2023/01/08 09:48:41;;;;;;;4.45;1.50;;;10.50;99.90;;;;;;4139224;28;20446;-65
2023/01/08 09:50:45;;;;;;;4.30;1.00;;;10.50;99.90;;;;;;4138308;28;20034;-67
2023/01/08 09:52:49;;;;;;;6.43;1.40;;;10.50;99.90;;;;;;4150854;28;20033;-70
2023/01/08 09:54:50;;;;;;;7.57;1.63;;;10.50;99.90;;;;;;4137358;28;20029;-66
2023/01/08 09:56:51;;;;;;;5.05;1.08;;;10.50;99.90;;;;;;4137251;28;20034;-66
2023/01/08 09:59:00;;;;;;;5.07;1.35;;;10.50;99.90;;;;;;4136665;28;20038;-66
2023/01/08 10:01:02;;;;;;;5.80;1.20;;;10.50;99.90;;;;;;4135550;28;20121;-66
2023/01/08 10:03:03;;;;;;;3.78;1.20;;;10.60;99.90;;;;;;4140481;28;20125;-65
2023/01/08 10:05:12;;;;;;;4.35;1.40;;;10.60;99.90;;;;;;4139211;28;20623;-69
2023/01/08 10:07:24;;;;;;;3.97;1.17;;;10.60;99.90;;;;;;4137207;28;20450;-66
2023/01/08 10:09:29;;;;;;;3.80;1.43;;;10.60;99.90;;;;;;4139323;28;20034;-66
2023/01/08 10:11:38;;;;;;;4.93;1.50;;;10.70;99.90;;;;;;4147009;28;20526;-66
2023/01/08 10:13:43;;;;;;;4.30;1.33;;;10.60;99.90;;;;;;4139773;28;20044;-66
2023/01/08 10:15:43;;;;;;;2.85;1.20;;;10.70;99.90;;;;;;4138292;28;20060;-66
2023/01/08 10:18:24;;;;;;;3.78;1.33;;;10.70;99.90;;;;;;4136109;28;20050;-66
2023/01/08 10:20:26;;;;;;;4.40;1.30;;;10.80;99.90;;;;;;4102012;28;20050;-65
2023/01/08 10:22:31;;;;;;;3.97;1.40;;;10.80;99.90;;;;;;4090023;28;20070;-65
2023/01/08 10:24:38;;;;;;;5.60;1.65;;;10.80;99.90;;;;;;4104030;28;20101;-67
2023/01/08 10:26:39;;;;;;;3.88;1.35;;;10.90;99.90;;;;;;4134386;28;20046;-66
2023/01/08 10:28:39;;;;;;;2.55;1.10;;;10.90;99.90;;;;;;4139820;28;20037;-66
2023/01/08 10:30:40;;;;;;;6.50;1.65;;;10.90;99.90;;;;;;4138532;28;20033;-65
2023/01/08 10:32:47;;;;;;;5.35;1.30;;;10.90;99.90;;;;;;4131424;28;20080;-66
2023/01/08 10:34:54;;;;;;;5.43;1.75;;;11.00;99.90;;;;;;4153534;28;20517;-65
2023/01/08 10:36:55;;;;;;;6.32;1.58;;;11.00;99.90;;;;;;4137802;28;20038;-65
2023/01/08 10:39:00;;;;;;;3.88;1.33;;;11.10;99.90;;;;;;4135124;28;20022;-65
2023/01/08 10:41:04;;;;;;;6.22;1.42;;;11.20;99.90;;;;;;4135211;28;20030;-66